sensor_id;sensor_type;location;lat;lon;timestamp;pressure;altitude;pressure_sealevel;temperature;humidity
57668;BME280;43499;52.366;12.912;2023-04-25T00:00:51;100289.31;;;8.71;71.07
57668;BME280;43499;52.366;12.912;2023-04-25T00:01:53;100282.50;;;8.73;71.05
57668;BME280;43499;52.366;12.912;2023-04-25T00:02:54;100252.66;;;8.60;70.75
57668;BME280;43499;52.366;12.912;2023-04-25T00:03:57;100294.69;;;8.72;70.82
57668;BME280;43499;52.366;12.912;2023-04-25T00:04:58;100292.84;;;8.71;71.36
57668;BME280;43499;52.366;12.912;2023-04-25T00:05:59;100284.06;;;8.71;70.95
57668;BME280;43499;52.366;12.912;2023-04-25T00:07:02;100251.81;;;8.49;71.02
57668;BME280;43499;52.366;12.912;2023-04-25T00:08:03;100260.94;;;8.44;71.25
57668;BME280;43499;52.366;12.912;2023-04-25T00:09:05;100294.00;;;8.75;71.43
57668;BME280;43499;52.366;12.912;2023-04-25T00:10:09;100289.16;;;8.79;70.71
57668;BME280;43499;52.366;12.912;2023-04-25T00:11:11;100283.41;;;8.73;70.55
57668;BME280;43499;52.366;12.912;2023-04-25T00:12:12;100285.53;;;8.67;70.80
57668;BME280;43499;52.366;12.912;2023-04-25T00:13:14;100284.63;;;8.67;71.06
57668;BME280;43499;52.366;12.912;2023-04-25T00:14:15;100274.31;;;8.58;71.24
57668;BME280;43499;52.366;12.912;2023-04-25T00:15:17;100300.56;;;8.70;71.04
57668;BME280;43499;52.366;12.912;2023-04-25T00:16:18;100298.09;;;8.71;71.40
57668;BME280;43499;52.366;12.912;2023-04-25T00:17:20;100262.00;;;8.57;71.29
57668;BME280;43499;52.366;12.912;2023-04-25T00:18:21;100297.16;;;8.71;70.79
57668;BME280;43499;52.366;12.912;2023-04-25T00:19:22;100284.66;;;8.56;71.09
57668;BME280;43499;52.366;12.912;2023-04-25T00:20:23;100300.47;;;8.68;71.27
57668;BME280;43499;52.366;12.912;2023-04-25T00:21:25;100278.88;;;8.60;71.01
57668;BME280;43499;52.366;12.912;2023-04-25T00:22:26;100266.97;;;8.54;70.46
57668;BME280;43499;52.366;12.912;2023-04-25T00:23:27;100243.81;;;8.48;70.72
57668;BME280;43499;52.366;12.912;2023-04-25T00:24:28;100278.19;;;8.63;70.85
57668;BME280;43499;52.366;12.912;2023-04-25T00:25:29;100287.47;;;8.70;70.79
57668;BME280;43499;52.366;12.912;2023-04-25T00:26:30;100281.75;;;8.63;71.18
57668;BME280;43499;52.366;12.912;2023-04-25T00:27:32;100249.84;;;8.37;71.16
57668;BME280;43499;52.366;12.912;2023-04-25T00:28:33;100292.75;;;8.59;71.07
57668;BME280;43499;52.366;12.912;2023-04-25T00:29:34;100265.69;;;8.48;70.86
57668;BME280;43499;52.366;12.912;2023-04-25T00:30:35;100287.25;;;8.67;71.08
57668;BME280;43499;52.366;12.912;2023-04-25T00:31:36;100293.38;;;8.67;70.99
57668;BME280;43499;52.366;12.912;2023-04-25T00:32:37;100295.75;;;8.64;70.66
57668;BME280;43499;52.366;12.912;2023-04-25T00:33:38;100291.28;;;8.63;71.71
57668;BME280;43499;52.366;12.912;2023-04-25T00:34:39;100286.56;;;8.69;70.78
57668;BME280;43499;52.366;12.912;2023-04-25T00:35:40;100245.66;;;8.39;71.08
57668;BME280;43499;52.366;12.912;2023-04-25T00:36:41;100295.63;;;8.62;71.65
57668;BME280;43499;52.366;12.912;2023-04-25T00:37:42;100287.88;;;8.64;71.06
57668;BME280;43499;52.366;12.912;2023-04-25T00:38:43;100275.19;;;8.58;70.78
57668;BME280;43499;52.366;12.912;2023-04-25T00:39:44;100274.34;;;8.47;70.94
57668;BME280;43499;52.366;12.912;2023-04-25T00:40:45;100285.56;;;8.57;70.92
57668;BME280;43499;52.366;12.912;2023-04-25T00:41:46;100256.75;;;8.46;70.94
57668;BME280;43499;52.366;12.912;2023-04-25T00:42:51;100257.84;;;8.48;71.12
57668;BME280;43499;52.366;12.912;2023-04-25T00:43:54;100286.63;;;8.59;70.75
57668;BME280;43499;52.366;12.912;2023-04-25T00:44:56;100240.56;;;8.30;71.22
57668;BME280;43499;52.366;12.912;2023-04-25T00:45:59;100211.16;;;8.12;70.86
57668;BME280;43499;52.366;12.912;2023-04-25T00:47:01;100285.44;;;8.55;71.51
57668;BME280;43499;52.366;12.912;2023-04-25T00:48:04;100283.72;;;8.56;71.43
57668;BME280;43499;52.366;12.912;2023-04-25T00:49:06;100283.84;;;8.57;71.09
57668;BME280;43499;52.366;12.912;2023-04-25T00:50:08;100272.88;;;8.41;70.72
57668;BME280;43499;52.366;12.912;2023-04-25T00:51:14;100286.25;;;8.54;71.24
57668;BME280;43499;52.366;12.912;2023-04-25T00:52:16;100258.25;;;8.32;71.16
57668;BME280;43499;52.366;12.912;2023-04-25T00:53:17;100225.41;;;8.26;71.16
57668;BME280;43499;52.366;12.912;2023-04-25T00:54:19;100241.75;;;8.33;71.06
57668;BME280;43499;52.366;12.912;2023-04-25T00:55:20;100292.63;;;8.58;70.72
57668;BME280;43499;52.366;12.912;2023-04-25T00:56:21;100281.91;;;8.55;71.37
57668;BME280;43499;52.366;12.912;2023-04-25T00:57:22;100279.81;;;8.61;70.95
57668;BME280;43499;52.366;12.912;2023-04-25T00:58:24;100288.72;;;8.53;71.20
57668;BME280;43499;52.366;12.912;2023-04-25T00:59:25;100295.00;;;8.44;71.59
57668;BME280;43499;52.366;12.912;2023-04-25T01:00:26;100270.41;;;8.32;71.16
57668;BME280;43499;52.366;12.912;2023-04-25T01:01:27;100290.97;;;8.48;71.71
57668;BME280;43499;52.366;12.912;2023-04-25T01:02:28;100225.47;;;7.95;71.53
57668;BME280;43499;52.366;12.912;2023-04-25T01:03:32;100285.22;;;8.31;71.71
57668;BME280;43499;52.366;12.912;2023-04-25T01:04:33;100293.47;;;8.36;71.92
57668;BME280;43499;52.366;12.912;2023-04-25T01:05:35;100272.91;;;8.30;71.93
57668;BME280;43499;52.366;12.912;2023-04-25T01:06:36;100241.56;;;8.10;70.61
57668;BME280;43499;52.366;12.912;2023-04-25T01:07:37;100260.72;;;8.31;71.43
57668;BME280;43499;52.366;12.912;2023-04-25T01:08:39;100273.94;;;8.43;71.01
57668;BME280;43499;52.366;12.912;2023-04-25T01:09:40;100292.94;;;8.51;71.11
57668;BME280;43499;52.366;12.912;2023-04-25T01:10:42;100287.69;;;8.51;70.28
57668;BME280;43499;52.366;12.912;2023-04-25T01:11:43;100247.41;;;8.28;70.86
57668;BME280;43499;52.366;12.912;2023-04-25T01:12:44;100289.28;;;8.48;70.67
57668;BME280;43499;52.366;12.912;2023-04-25T01:13:45;100265.97;;;8.31;71.05
57668;BME280;43499;52.366;12.912;2023-04-25T01:14:46;100282.44;;;8.40;71.21
57668;BME280;43499;52.366;12.912;2023-04-25T01:15:47;100275.66;;;8.32;71.02
57668;BME280;43499;52.366;12.912;2023-04-25T01:16:48;100290.84;;;8.36;71.29
57668;BME280;43499;52.366;12.912;2023-04-25T01:17:49;100294.75;;;8.41;71.39
57668;BME280;43499;52.366;12.912;2023-04-25T01:18:51;100224.44;;;8.03;71.09
57668;BME280;43499;52.366;12.912;2023-04-25T01:19:52;100278.00;;;8.39;71.66
57668;BME280;43499;52.366;12.912;2023-04-25T01:20:53;100282.72;;;8.33;71.64
57668;BME280;43499;52.366;12.912;2023-04-25T01:21:56;100202.50;;;7.80;71.71
57668;BME280;43499;52.366;12.912;2023-04-25T01:22:57;100263.75;;;8.25;70.98
57668;BME280;43499;52.366;12.912;2023-04-25T01:23:58;100221.03;;;8.04;71.34
57668;BME280;43499;52.366;12.912;2023-04-25T01:25:00;100270.16;;;8.29;71.40
57668;BME280;43499;52.366;12.912;2023-04-25T01:26:02;100259.19;;;8.23;71.37
57668;BME280;43499;52.366;12.912;2023-04-25T01:27:04;100223.66;;;8.04;71.20
57668;BME280;43499;52.366;12.912;2023-04-25T01:28:05;100270.78;;;8.37;71.21
57668;BME280;43499;52.366;12.912;2023-04-25T01:29:07;100246.34;;;8.26;70.69
57668;BME280;43499;52.366;12.912;2023-04-25T01:30:10;100283.47;;;8.42;70.91
57668;BME280;43499;52.366;12.912;2023-04-25T01:31:12;100272.25;;;8.33;71.17
57668;BME280;43499;52.366;12.912;2023-04-25T01:32:14;100284.25;;;8.41;71.26
57668;BME280;43499;52.366;12.912;2023-04-25T01:33:15;100246.75;;;8.20;71.08
57668;BME280;43499;52.366;12.912;2023-04-25T01:34:18;100261.78;;;8.33;70.87
57668;BME280;43499;52.366;12.912;2023-04-25T01:35:19;100265.69;;;8.38;71.05
57668;BME280;43499;52.366;12.912;2023-04-25T01:36:21;100261.63;;;8.42;70.57
57668;BME280;43499;52.366;12.912;2023-04-25T01:37:22;100268.06;;;8.35;70.78
57668;BME280;43499;52.366;12.912;2023-04-25T01:38:23;100281.28;;;8.37;71.55
57668;BME280;43499;52.366;12.912;2023-04-25T01:39:25;100277.75;;;8.36;71.00
57668;BME280;43499;52.366;12.912;2023-04-25T01:40:27;100276.41;;;8.41;70.94
57668;BME280;43499;52.366;12.912;2023-04-25T01:41:28;100265.31;;;8.23;71.24
57668;BME280;43499;52.366;12.912;2023-04-25T01:42:29;100254.34;;;8.17;71.01
57668;BME280;43499;52.366;12.912;2023-04-25T01:43:30;100276.81;;;8.36;70.91
57668;BME280;43499;52.366;12.912;2023-04-25T01:44:31;100256.28;;;8.30;71.14
57668;BME280;43499;52.366;12.912;2023-04-25T01:45:32;100229.34;;;8.21;70.93
57668;BME280;43499;52.366;12.912;2023-04-25T01:46:34;100254.59;;;8.30;71.13
57668;BME280;43499;52.366;12.912;2023-04-25T01:47:35;100261.25;;;8.37;70.59
57668;BME280;43499;52.366;12.912;2023-04-25T01:48:36;100254.31;;;8.27;70.85
57668;BME280;43499;52.366;12.912;2023-04-25T01:49:37;100262.44;;;8.30;70.78
57668;BME280;43499;52.366;12.912;2023-04-25T01:50:40;100266.75;;;8.30;71.17
57668;BME280;43499;52.366;12.912;2023-04-25T01:51:41;100270.31;;;8.30;71.17
57668;BME280;43499;52.366;12.912;2023-04-25T01:52:43;100266.38;;;8.25;71.38
57668;BME280;43499;52.366;12.912;2023-04-25T01:53:46;100241.38;;;8.18;71.13
57668;BME280;43499;52.366;12.912;2023-04-25T01:54:48;100270.78;;;8.37;71.43
57668;BME280;43499;52.366;12.912;2023-04-25T01:55:50;100212.38;;;7.95;70.97
57668;BME280;43499;52.366;12.912;2023-04-25T01:56:57;100226.78;;;8.00;71.12
57668;BME280;43499;52.366;12.912;2023-04-25T01:57:58;100235.91;;;8.15;70.89
57668;BME280;43499;52.366;12.912;2023-04-25T01:59:12;100267.78;;;8.32;70.83
57668;BME280;43499;52.366;12.912;2023-04-25T02:00:26;100252.13;;;8.22;71.24
57668;BME280;43499;52.366;12.912;2023-04-25T02:01:27;100245.47;;;8.15;71.44
57668;BME280;43499;52.366;12.912;2023-04-25T02:02:46;100272.41;;;8.24;71.48
57668;BME280;43499;52.366;12.912;2023-04-25T02:03:56;100277.38;;;8.31;71.55
57668;BME280;43499;52.366;12.912;2023-04-25T02:05:03;100212.03;;;7.80;72.08
57668;BME280;43499;52.366;12.912;2023-04-25T02:06:07;100236.50;;;7.91;71.77
57668;BME280;43499;52.366;12.912;2023-04-25T02:07:11;100249.97;;;7.95;71.90
57668;BME280;43499;52.366;12.912;2023-04-25T02:08:25;100269.69;;;8.12;72.20
57668;BME280;43499;52.366;12.912;2023-04-25T02:09:29;100260.00;;;8.11;71.87
57668;BME280;43499;52.366;12.912;2023-04-25T02:10:32;100242.38;;;7.98;72.01
57668;BME280;43499;52.366;12.912;2023-04-25T02:11:59;100270.97;;;8.17;71.57
57668;BME280;43499;52.366;12.912;2023-04-25T02:13:23;100271.13;;;8.19;71.47
57668;BME280;43499;52.366;12.912;2023-04-25T02:14:34;100249.03;;;8.05;71.36
57668;BME280;43499;52.366;12.912;2023-04-25T02:15:39;100252.81;;;8.09;71.52
57668;BME280;43499;52.366;12.912;2023-04-25T02:16:52;100256.06;;;8.06;72.42
57668;BME280;43499;52.366;12.912;2023-04-25T02:17:53;100262.34;;;8.08;71.71
57668;BME280;43499;52.366;12.912;2023-04-25T02:18:54;100247.84;;;7.91;72.45
57668;BME280;43499;52.366;12.912;2023-04-25T02:19:55;100248.13;;;7.94;71.85
57668;BME280;43499;52.366;12.912;2023-04-25T02:21:01;100244.84;;;7.97;71.86
57668;BME280;43499;52.366;12.912;2023-04-25T02:22:02;100253.25;;;7.93;72.52
57668;BME280;43499;52.366;12.912;2023-04-25T02:23:03;100252.31;;;7.92;72.15
57668;BME280;43499;52.366;12.912;2023-04-25T02:24:05;100264.72;;;7.95;72.39
57668;BME280;43499;52.366;12.912;2023-04-25T02:25:06;100269.72;;;8.02;72.66
57668;BME280;43499;52.366;12.912;2023-04-25T02:26:07;100240.00;;;7.91;72.30
57668;BME280;43499;52.366;12.912;2023-04-25T02:27:08;100264.19;;;8.09;72.34
57668;BME280;43499;52.366;12.912;2023-04-25T02:28:10;100258.56;;;8.05;72.70
57668;BME280;43499;52.366;12.912;2023-04-25T02:29:12;100266.03;;;8.00;72.54
57668;BME280;43499;52.366;12.912;2023-04-25T02:30:13;100266.06;;;7.90;72.72
57668;BME280;43499;52.366;12.912;2023-04-25T02:31:15;100234.13;;;7.83;72.52
57668;BME280;43499;52.366;12.912;2023-04-25T02:32:16;100259.91;;;7.99;72.63
57668;BME280;43499;52.366;12.912;2023-04-25T02:33:17;100266.16;;;8.01;72.91
57668;BME280;43499;52.366;12.912;2023-04-25T02:34:18;100231.88;;;7.88;72.34
57668;BME280;43499;52.366;12.912;2023-04-25T02:35:19;100243.41;;;7.90;72.49
57668;BME280;43499;52.366;12.912;2023-04-25T02:36:20;100239.63;;;7.86;72.14
57668;BME280;43499;52.366;12.912;2023-04-25T02:37:23;100224.72;;;7.75;72.78
57668;BME280;43499;52.366;12.912;2023-04-25T02:38:24;100248.25;;;7.85;72.80
57668;BME280;43499;52.366;12.912;2023-04-25T02:39:25;100236.34;;;7.89;72.92
57668;BME280;43499;52.366;12.912;2023-04-25T02:40:27;100247.72;;;8.00;72.97
57668;BME280;43499;52.366;12.912;2023-04-25T02:41:29;100264.44;;;8.12;72.34
57668;BME280;43499;52.366;12.912;2023-04-25T02:42:30;100261.56;;;8.09;72.68
57668;BME280;43499;52.366;12.912;2023-04-25T02:43:32;100250.22;;;7.98;72.61
57668;BME280;43499;52.366;12.912;2023-04-25T02:44:33;100254.91;;;8.02;72.65
57668;BME280;43499;52.366;12.912;2023-04-25T02:45:34;100231.88;;;7.88;72.52
57668;BME280;43499;52.366;12.912;2023-04-25T02:46:35;100256.88;;;8.05;72.80
57668;BME280;43499;52.366;12.912;2023-04-25T02:47:36;100252.28;;;8.02;72.15
57668;BME280;43499;52.366;12.912;2023-04-25T02:48:38;100210.47;;;7.82;72.58
57668;BME280;43499;52.366;12.912;2023-04-25T02:49:39;100254.91;;;8.02;72.46
57668;BME280;43499;52.366;12.912;2023-04-25T02:50:40;100199.47;;;7.65;72.70
57668;BME280;43499;52.366;12.912;2023-04-25T02:51:41;100195.19;;;7.66;73.01
57668;BME280;43499;52.366;12.912;2023-04-25T02:52:42;100229.28;;;7.88;72.35
57668;BME280;43499;52.366;12.912;2023-04-25T02:53:48;100255.06;;;8.04;72.87
57668;BME280;43499;52.366;12.912;2023-04-25T02:54:50;100250.84;;;7.96;73.10
57668;BME280;43499;52.366;12.912;2023-04-25T02:55:51;100217.16;;;7.78;73.20
57668;BME280;43499;52.366;12.912;2023-04-25T02:56:53;100259.25;;;8.02;73.51
57668;BME280;43499;52.366;12.912;2023-04-25T02:57:59;100259.91;;;7.99;72.74
57668;BME280;43499;52.366;12.912;2023-04-25T02:59:12;100243.41;;;7.90;72.95
57668;BME280;43499;52.366;12.912;2023-04-25T03:00:13;100250.22;;;7.98;72.52
57668;BME280;43499;52.366;12.912;2023-04-25T03:01:15;100249.97;;;7.95;73.17
57668;BME280;43499;52.366;12.912;2023-04-25T03:02:16;100255.56;;;8.00;73.28
57668;BME280;43499;52.366;12.912;2023-04-25T03:03:17;100248.13;;;7.94;72.98
57668;BME280;43499;52.366;12.912;2023-04-25T03:04:19;100251.53;;;7.93;73.47
57668;BME280;43499;52.366;12.912;2023-04-25T03:05:20;100261.22;;;7.94;73.07
57668;BME280;43499;52.366;12.912;2023-04-25T03:06:21;100235.84;;;7.83;72.99
57668;BME280;43499;52.366;12.912;2023-04-25T03:07:22;100256.88;;;7.95;73.38
57668;BME280;43499;52.366;12.912;2023-04-25T03:08:23;100251.53;;;7.93;73.33
57668;BME280;43499;52.366;12.912;2023-04-25T03:09:26;100210.88;;;7.55;73.58
57668;BME280;43499;52.366;12.912;2023-04-25T03:10:27;100253.09;;;7.91;73.69
57668;BME280;43499;52.366;12.912;2023-04-25T03:11:29;100250.75;;;7.84;73.24
57668;BME280;43499;52.366;12.912;2023-04-25T03:12:30;100250.75;;;7.84;73.61
57668;BME280;43499;52.366;12.912;2023-04-25T03:13:31;100238.97;;;7.79;73.60
57668;BME280;43499;52.366;12.912;2023-04-25T03:14:33;100226.28;;;7.73;73.46
57668;BME280;43499;52.366;12.912;2023-04-25T03:15:35;100255.44;;;7.88;73.44
57668;BME280;43499;52.366;12.912;2023-04-25T03:16:36;100243.56;;;7.81;73.77
57668;BME280;43499;52.366;12.912;2023-04-25T03:17:37;100256.09;;;7.85;73.63
57668;BME280;43499;52.366;12.912;2023-04-25T03:18:38;100194.66;;;7.60;73.61
57668;BME280;43499;52.366;12.912;2023-04-25T03:19:40;100254.94;;;7.92;73.82
57668;BME280;43499;52.366;12.912;2023-04-25T03:20:41;100223.69;;;7.73;73.80
57668;BME280;43499;52.366;12.912;2023-04-25T03:21:44;100252.03;;;7.89;73.67
57668;BME280;43499;52.366;12.912;2023-04-25T03:22:45;100247.09;;;7.82;74.08
57668;BME280;43499;52.366;12.912;2023-04-25T03:23:46;100221.19;;;7.54;74.47
57668;BME280;43499;52.366;12.912;2023-04-25T03:24:47;100264.34;;;7.80;73.81
57668;BME280;43499;52.366;12.912;2023-04-25T03:25:48;100195.22;;;7.45;73.91
57668;BME280;43499;52.366;12.912;2023-04-25T03:26:49;100170.47;;;7.31;74.72
57668;BME280;43499;52.366;12.912;2023-04-25T03:27:50;100239.91;;;7.69;73.92
57668;BME280;43499;52.366;12.912;2023-04-25T03:28:52;100248.00;;;7.72;74.11
57668;BME280;43499;52.366;12.912;2023-04-25T03:29:53;100221.34;;;7.55;74.35
57668;BME280;43499;52.366;12.912;2023-04-25T03:30:54;100256.78;;;7.62;74.59
57668;BME280;43499;52.366;12.912;2023-04-25T03:31:55;100207.34;;;7.34;74.62
57668;BME280;43499;52.366;12.912;2023-04-25T03:32:56;100259.25;;;7.61;74.52
57668;BME280;43499;52.366;12.912;2023-04-25T03:33:57;100217.41;;;7.40;74.85
57668;BME280;43499;52.366;12.912;2023-04-25T03:34:59;100259.66;;;7.55;75.30
57668;BME280;43499;52.366;12.912;2023-04-25T03:36:02;100217.81;;;7.34;75.18
57668;BME280;43499;52.366;12.912;2023-04-25T03:37:03;100203.06;;;7.24;75.14
57668;BME280;43499;52.366;12.912;2023-04-25T03:38:09;100236.78;;;7.42;75.55
57668;BME280;43499;52.366;12.912;2023-04-25T03:39:14;100215.69;;;7.20;75.05
57668;BME280;43499;52.366;12.912;2023-04-25T03:40:20;100261.09;;;7.51;75.66
57668;BME280;43499;52.366;12.912;2023-04-25T03:41:50;100263.81;;;7.43;75.86
57668;BME280;43499;52.366;12.912;2023-04-25T03:42:52;100266.31;;;7.51;75.83
57668;BME280;43499;52.366;12.912;2023-04-25T03:43:53;100269.59;;;7.49;76.00
57668;BME280;43499;52.366;12.912;2023-04-25T03:44:55;100259.81;;;7.46;75.81
57668;BME280;43499;52.366;12.912;2023-04-25T03:45:56;100237.28;;;7.38;75.75
57668;BME280;43499;52.366;12.912;2023-04-25T03:46:58;100262.41;;;7.56;75.68
57668;BME280;43499;52.366;12.912;2023-04-25T03:47:59;100266.09;;;7.59;75.96
57668;BME280;43499;52.366;12.912;2023-04-25T03:49:02;100267.38;;;7.53;75.83
57668;BME280;43499;52.366;12.912;2023-04-25T03:50:20;100264.50;;;7.61;75.91
57668;BME280;43499;52.366;12.912;2023-04-25T03:51:21;100261.34;;;7.65;75.35
57668;BME280;43499;52.366;12.912;2023-04-25T03:52:22;100267.66;;;7.67;75.92
57668;BME280;43499;52.366;12.912;2023-04-25T03:53:25;100221.34;;;7.35;75.70
57668;BME280;43499;52.366;12.912;2023-04-25T03:54:45;100254.41;;;7.55;75.92
57668;BME280;43499;52.366;12.912;2023-04-25T03:55:49;100254.69;;;7.58;75.98
57668;BME280;43499;52.366;12.912;2023-04-25T03:56:50;100246.19;;;7.61;75.77
57668;BME280;43499;52.366;12.912;2023-04-25T03:57:55;100203.19;;;7.26;76.13
57668;BME280;43499;52.366;12.912;2023-04-25T03:59:38;100226.97;;;7.39;75.81
57668;BME280;43499;52.366;12.912;2023-04-25T04:07:10;100192.84;;;7.28;75.51
57668;BME280;43499;52.366;12.912;2023-04-25T04:08:58;100240.16;;;7.51;75.20
57668;BME280;43499;52.366;12.912;2023-04-25T04:14:28;100186.72;;;7.17;75.86
57668;BME280;43499;52.366;12.912;2023-04-25T04:19:11;100207.75;;;7.29;75.55
57668;BME280;43499;52.366;12.912;2023-04-25T04:21:31;100226.19;;;7.30;76.61
57668;BME280;43499;52.366;12.912;2023-04-25T04:26:16;100307.16;;;7.70;77.72
57668;BME280;43499;52.366;12.912;2023-04-25T04:30:56;100299.31;;;7.70;78.70
57668;BME280;43499;52.366;12.912;2023-04-25T04:33:27;100299.16;;;7.68;80.29
57668;BME280;43499;52.366;12.912;2023-04-25T04:37:50;100249.97;;;7.33;80.39
57668;BME280;43499;52.366;12.912;2023-04-25T04:39:15;100273.38;;;7.42;80.27
57668;BME280;43499;52.366;12.912;2023-04-25T04:45:39;100216.75;;;7.12;80.88
57668;BME280;43499;52.366;12.912;2023-04-25T04:52:42;100250.63;;;7.51;79.57
57668;BME280;43499;52.366;12.912;2023-04-25T04:54:31;100303.88;;;7.93;78.82
57668;BME280;43499;52.366;12.912;2023-04-25T04:58:57;100265.03;;;7.77;77.48
57668;BME280;43499;52.366;12.912;2023-04-25T05:00:39;100221.59;;;7.48;78.30
57668;BME280;43499;52.366;12.912;2023-04-25T05:02:35;100237.44;;;7.60;78.37
57668;BME280;43499;52.366;12.912;2023-04-25T05:09:19;100259.41;;;7.72;78.55
57668;BME280;43499;52.366;12.912;2023-04-25T05:17:27;100317.34;;;7.98;78.30
57668;BME280;43499;52.366;12.912;2023-04-25T05:21:32;100317.47;;;8.20;77.91
57668;BME280;43499;52.366;12.912;2023-04-25T05:23:35;100305.25;;;8.31;77.34
57668;BME280;43499;52.366;12.912;2023-04-25T05:34:55;100194.22;;;8.39;74.15
57668;BME280;43499;52.366;12.912;2023-04-25T05:44:11;100329.34;;;9.13;72.96
57668;BME280;43499;52.366;12.912;2023-04-25T05:54:55;100255.34;;;8.50;73.46
57668;BME280;43499;52.366;12.912;2023-04-25T06:06:13;100324.34;;;10.76;66.06
57668;BME280;43499;52.366;12.912;2023-04-25T06:08:32;100326.53;;;10.46;67.51
57668;BME280;43499;52.366;12.912;2023-04-25T06:12:47;100261.06;;;9.79;67.42
57668;BME280;43499;52.366;12.912;2023-04-25T06:15:12;100275.16;;;9.92;68.19
57668;BME280;43499;52.366;12.912;2023-04-25T06:23:08;100269.00;;;9.57;69.21
57668;BME280;43499;52.366;12.912;2023-04-25T06:27:30;100354.25;;;9.40;71.19
57668;BME280;43499;52.366;12.912;2023-04-25T06:29:35;100315.63;;;9.05;71.45
57668;BME280;43499;52.366;12.912;2023-04-25T06:32:09;100354.94;;;9.37;71.80
57668;BME280;43499;52.366;12.912;2023-04-25T06:34:37;100359.44;;;9.28;71.65
57668;BME280;43499;52.366;12.912;2023-04-25T06:37:04;100358.34;;;9.36;71.87
57668;BME280;43499;52.366;12.912;2023-04-25T06:44:56;100249.69;;;8.56;73.65
57668;BME280;43499;52.366;12.912;2023-04-25T06:49:10;100374.66;;;9.00;74.74
57668;BME280;43499;52.366;12.912;2023-04-25T06:53:52;100327.47;;;8.46;75.50
57668;BME280;43499;52.366;12.912;2023-04-25T06:56:52;100388.00;;;8.60;77.73
57668;BME280;43499;52.366;12.912;2023-04-25T07:05:36;100390.31;;;8.77;77.71
57668;BME280;43499;52.366;12.912;2023-04-25T07:18:16;100348.94;;;8.73;74.24
57668;BME280;43499;52.366;12.912;2023-04-25T07:30:53;100422.00;;;9.23;73.33
57668;BME280;43499;52.366;12.912;2023-04-25T07:32:40;100339.25;;;8.72;73.24
57668;BME280;43499;52.366;12.912;2023-04-25T07:34:25;100305.38;;;8.53;72.50
57668;BME280;43499;52.366;12.912;2023-04-25T07:37:09;100424.56;;;9.01;73.03
57668;BME280;43499;52.366;12.912;2023-04-25T07:39:38;100346.75;;;8.37;72.30
57668;BME280;43499;52.366;12.912;2023-04-25T08:04:35;100404.66;;;10.48;61.95
57668;BME280;43499;52.366;12.912;2023-04-25T08:14:35;100448.22;;;11.16;59.00
57668;BME280;43499;52.366;12.912;2023-04-25T08:19:04;100365.00;;;11.17;57.02
57668;BME280;43499;52.366;12.912;2023-04-25T08:37:00;100414.63;;;21.86;31.56
57668;BME280;43499;52.366;12.912;2023-04-25T08:47:19;100437.97;;;20.57;30.79
57668;BME280;43499;52.366;12.912;2023-04-25T08:49:48;100437.91;;;18.75;34.86
57668;BME280;43499;52.366;12.912;2023-04-25T08:55:37;100426.84;;;17.87;37.29
57668;BME280;43499;52.366;12.912;2023-04-25T08:57:31;100476.03;;;18.74;36.20
57668;BME280;43499;52.366;12.912;2023-04-25T08:58:57;100392.59;;;20.32;34.09
57668;BME280;43499;52.366;12.912;2023-04-25T09:00:43;100424.72;;;19.87;32.70
57668;BME280;43499;52.366;12.912;2023-04-25T09:06:56;100442.03;;;29.00;21.71
57668;BME280;43499;52.366;12.912;2023-04-25T09:09:57;100397.22;;;24.64;24.57
57668;BME280;43499;52.366;12.912;2023-04-25T09:13:47;100395.19;;;19.60;31.12
57668;BME280;43499;52.366;12.912;2023-04-25T09:15:53;100408.00;;;18.61;32.96
57668;BME280;43499;52.366;12.912;2023-04-25T09:18:01;100495.69;;;20.29;31.38
57668;BME280;43499;52.366;12.912;2023-04-25T09:20:15;100427.25;;;17.39;35.32
57668;BME280;43499;52.366;12.912;2023-04-25T09:28:08;100505.53;;;15.32;37.66
57668;BME280;43499;52.366;12.912;2023-04-25T09:30:09;100469.97;;;14.82;36.14
57668;BME280;43499;52.366;12.912;2023-04-25T09:34:09;100508.28;;;17.67;32.95
57668;BME280;43499;52.366;12.912;2023-04-25T09:36:19;100502.56;;;21.21;28.76
57668;BME280;43499;52.366;12.912;2023-04-25T09:38:44;100503.69;;;18.97;30.91
57668;BME280;43499;52.366;12.912;2023-04-25T09:43:26;100518.47;;;16.37;34.70
57668;BME280;43499;52.366;12.912;2023-04-25T09:45:25;100439.66;;;14.77;36.20
57668;BME280;43499;52.366;12.912;2023-04-25T09:49:43;100522.88;;;15.57;37.52
57668;BME280;43499;52.366;12.912;2023-04-25T09:53:14;100521.25;;;14.99;37.01
57668;BME280;43499;52.366;12.912;2023-04-25T09:55:40;100527.91;;;15.52;36.74
57668;BME280;43499;52.366;12.912;2023-04-25T09:57:54;100448.78;;;13.95;37.59
57668;BME280;43499;52.366;12.912;2023-04-25T09:59:54;100502.88;;;13.87;38.23
57668;BME280;43499;52.366;12.912;2023-04-25T10:02:16;100532.38;;;13.66;39.03
57668;BME280;43499;52.366;12.912;2023-04-25T10:03:20;100501.06;;;13.59;40.03
57668;BME280;43499;52.366;12.912;2023-04-25T10:04:52;100537.94;;;13.84;39.14
57668;BME280;43499;52.366;12.912;2023-04-25T10:06:00;100533.34;;;13.95;39.01
57668;BME280;43499;52.366;12.912;2023-04-25T10:07:03;100472.31;;;13.64;38.98
57668;BME280;43499;52.366;12.912;2023-04-25T10:08:06;100504.50;;;13.85;38.81
57668;BME280;43499;52.366;12.912;2023-04-25T10:09:07;100514.63;;;13.92;38.73
57668;BME280;43499;52.366;12.912;2023-04-25T10:10:12;100489.78;;;13.75;39.48
57668;BME280;43499;52.366;12.912;2023-04-25T10:11:14;100542.50;;;14.00;39.50
57668;BME280;43499;52.366;12.912;2023-04-25T10:12:16;100551.56;;;13.77;39.79
57668;BME280;43499;52.366;12.912;2023-04-25T10:13:18;100492.53;;;13.36;40.03
57668;BME280;43499;52.366;12.912;2023-04-25T10:14:19;100505.25;;;13.29;40.30